Time;durP1;ratioP1;P1;durP2;ratioP2;P2;SDS_P1;SDS_P2;PMS_P1;PMS_P2;Temp;Humidity;BMP_temperature;BMP_pressure;BME280_temperature;BME280_humidity;BME280_pressure;Samples;Min_cycle;Max_cycle;Signal;HPM_P1;HPM_P2
2021/08/04 00:02:02;;;;;;;4.83;1.83;;;;;;;11.98;100.00;93715.69;5074697;28;20206;-81
2021/08/04 00:04:28;;;;;;;3.57;1.93;;;;;;;11.97;100.00;93714.91;5074262;28;20199;-81
2021/08/04 00:06:54;;;;;;;2.77;1.80;;;;;;;11.87;100.00;93706.66;5074296;28;20199;-80
2021/08/04 00:09:21;;;;;;;288.33;36.13;;;;;;;11.80;100.00;93709.31;5074688;28;20208;-81
2021/08/04 00:11:47;;;;;;;2.23;1.70;;;;;;;11.74;100.00;93709.34;5074272;28;20199;-80
2021/08/04 00:14:14;;;;;;;2.97;1.80;;;;;;;11.68;100.00;93697.91;5074242;28;20205;-80
2021/08/04 00:16:42;;;;;;;6.03;2.17;;;;;;;11.65;100.00;93700.94;5074397;28;20206;-79
2021/08/04 00:19:08;;;;;;;98.47;53.10;;;;;;;11.62;100.00;93706.56;5074155;28;20201;-81
2021/08/04 00:21:35;;;;;;;6.90;2.17;;;;;;;11.63;100.00;93697.72;5074187;28;20214;-81
2021/08/04 00:24:01;;;;;;;120.67;28.67;;;;;;;11.55;100.00;93708.44;5074386;28;20206;-81
2021/08/04 00:26:28;;;;;;;171.60;52.50;;;;;;;11.48;100.00;93705.84;5074189;28;20599;-81
2021/08/04 00:28:54;;;;;;;84.50;75.57;;;;;;;11.45;100.00;93708.88;5072989;28;20434;-81
2021/08/04 00:31:21;;;;;;;8.40;2.27;;;;;;;11.44;100.00;93710.69;5074074;28;20202;-81
2021/08/04 00:33:49;;;;;;;5.43;1.97;;;;;;;11.40;100.00;93701.63;5073993;28;20207;-80
2021/08/04 00:36:15;;;;;;;3.20;2.13;;;;;;;11.41;100.00;93707.69;5073600;28;20253;-80
2021/08/04 00:38:41;;;;;;;4.67;2.50;;;;;;;11.42;100.00;93699.66;5073976;28;20195;-79
2021/08/04 00:41:08;;;;;;;5.93;2.20;;;;;;;11.41;100.00;93695.41;5074039;28;20557;-80
2021/08/04 00:43:34;;;;;;;7.33;2.30;;;;;;;11.39;100.00;93702.66;5073736;28;20585;-80
2021/08/04 00:46:01;;;;;;;6.37;2.17;;;;;;;11.31;100.00;93705.50;5073766;28;20653;-80
2021/08/04 00:48:28;;;;;;;6.83;2.27;;;;;;;11.31;100.00;93705.50;5073523;28;20199;-82
2021/08/04 00:50:56;;;;;;;3.43;2.10;;;;;;;11.23;100.00;93708.34;5073789;28;20210;-79
2021/08/04 00:53:24;;;;;;;4.97;2.07;;;;;;;11.23;100.00;93705.75;5073756;28;20202;-80
2021/08/04 00:55:52;;;;;;;4.77;2.17;;;;;;;11.23;100.00;93703.91;5072783;28;20226;-81
2021/08/04 00:58:19;;;;;;;5.43;2.13;;;;;;;11.25;100.00;93701.09;5073600;28;20207;-81
2021/08/04 01:00:51;;;;;;;4.07;2.00;;;;;;;11.23;100.00;93695.28;5073429;28;20207;-81
2021/08/04 01:03:19;;;;;;;4.20;2.07;;;;;;;11.25;100.00;93690.66;5073252;28;20206;-81
2021/08/04 01:05:52;;;;;;;4.37;1.90;;;;;;;11.20;100.00;93685.25;5073247;28;20289;-80
2021/08/04 01:08:27;;;;;;;9.00;2.10;;;;;;;11.26;100.00;93692.25;5073609;28;20209;-80
2021/08/04 01:10:56;;;;;;;2.10;1.60;;;;;;;11.29;100.00;93686.59;5073460;28;20202;-81
2021/08/04 01:13:25;;;;;;;3.47;2.10;;;;;;;11.27;100.00;93691.22;5073206;28;20569;-81
2021/08/04 01:16:00;;;;;;;5.33;2.20;;;;;;;11.26;100.00;93695.66;5073049;28;20230;-82
2021/08/04 01:18:30;;;;;;;6.53;2.27;;;;;;;11.19;100.00;93694.91;5073296;28;20198;-82
2021/08/04 01:20:57;;;;;;;4.80;2.33;;;;;;;11.18;100.00;93695.91;5073318;28;20231;-82
2021/08/04 01:23:33;;;;;;;5.73;1.93;;;;;;;11.15;100.00;93695.50;5073238;28;20229;-81
2021/08/04 01:26:03;;;;;;;3.20;1.93;;;;;;;11.09;100.00;93697.94;5073011;28;20202;-81
2021/08/04 01:28:34;;;;;;;3.33;2.20;;;;;;;11.11;100.00;93690.69;5073349;28;20198;-81
2021/08/04 01:31:05;;;;;;;6.33;2.33;;;;;;;11.07;100.00;93694.72;5073079;28;20199;-80
2021/08/04 01:33:34;;;;;;;6.33;2.13;;;;;;;11.11;100.00;93689.91;5073130;28;20210;-81
2021/08/04 01:36:01;;;;;;;5.77;2.30;;;;;;;11.10;100.00;93691.69;5072933;28;20237;-81
2021/08/04 01:38:30;;;;;;;9.77;2.40;;;;;;;11.07;100.00;93699.13;5072851;28;20199;-81
2021/08/04 01:40:57;;;;;;;3.30;2.10;;;;;;;11.05;100.00;93696.72;5073114;28;20206;-82
2021/08/04 01:43:26;;;;;;;3.60;2.10;;;;;;;11.05;100.00;93699.34;5072713;28;20234;-82
2021/08/04 01:45:56;;;;;;;4.63;1.93;;;;;;;11.07;100.00;93696.53;5072994;28;20203;-81
2021/08/04 01:48:25;;;;;;;4.63;2.60;;;;;;;11.06;100.00;93692.31;5073038;28;20697;-80
2021/08/04 01:50:54;;;;;;;3.00;2.50;;;;;;;11.03;100.00;93690.91;5072768;28;20198;-81
2021/08/04 01:53:21;;;;;;;4.13;1.83;;;;;;;11.03;100.00;93677.84;5072952;28;20225;-81
2021/08/04 01:55:48;;;;;;;6.33;2.07;;;;;;;11.05;100.00;93680.25;5072728;28;20226;-81
2021/08/04 01:58:14;;;;;;;3.93;2.10;;;;;;;11.10;100.00;93673.41;5072980;28;20202;-81
2021/08/04 02:00:41;;;;;;;7.37;2.70;;;;;;;11.09;100.00;93677.03;5072735;28;20661;-81
2021/08/04 02:03:10;;;;;;;6.67;2.57;;;;;;;11.05;100.00;93678.44;5071789;28;20437;-80
2021/08/04 02:05:36;;;;;;;8.63;2.73;;;;;;;11.09;100.00;93677.03;5072148;28;20211;-81
2021/08/04 02:08:12;;;;;;;5.57;2.50;;;;;;;11.08;100.00;93679.84;5076374;28;20210;-80
2021/08/04 02:10:46;;;;;;;5.80;2.30;;;;;;;11.08;100.00;93672.81;5076837;28;20198;-81
2021/08/04 02:13:26;;;;;;;5.63;2.27;;;;;;;11.08;100.00;93667.59;5076780;28;20557;-82
2021/08/04 02:15:58;;;;;;;4.90;2.20;;;;;;;11.08;100.00;93664.97;5076266;28;20229;-81
2021/08/04 02:18:30;;;;;;;3.30;2.17;;;;;;;11.07;100.00;93668.59;5076673;28;20195;-80
2021/08/04 02:20:59;;;;;;;7.97;2.23;;;;;;;11.13;100.00;93671.41;5076879;28;20199;-80
2021/08/04 02:23:30;;;;;;;6.43;2.27;;;;;;;11.14;100.00;93665.16;5076381;28;20202;-81
2021/08/04 02:26:00;;;;;;;4.40;2.33;;;;;;;11.10;100.00;93662.94;5076328;28;20577;-80
2021/08/04 02:28:31;;;;;;;5.30;2.10;;;;;;;11.04;100.00;93663.78;5076296;28;20226;-83
2021/08/04 02:30:57;;;;;;;6.60;2.10;;;;;;;11.04;100.00;93658.56;5076730;28;20198;-82
2021/08/04 02:33:27;;;;;;;4.83;2.30;;;;;;;11.05;100.00;93654.13;5076216;28;20202;-81
2021/08/04 02:35:54;;;;;;;5.47;2.30;;;;;;;11.01;100.00;93652.94;5076122;28;20700;-82
2021/08/04 02:38:21;;;;;;;3.20;2.03;;;;;;;11.02;100.00;93649.31;5076154;28;20217;-81
2021/08/04 02:40:47;;;;;;;4.87;2.17;;;;;;;11.03;100.00;93648.31;5076076;28;20209;-80
2021/08/04 02:43:15;;;;;;;4.20;2.50;;;;;;;11.03;100.00;93650.94;5075828;28;20239;-81
2021/08/04 02:45:42;;;;;;;3.50;2.10;;;;;;;11.01;100.00;93645.91;5076203;28;20194;-76
2021/08/04 02:48:11;;;;;;;4.13;2.30;;;;;;;10.97;100.00;93655.16;5076251;28;20201;-78
2021/08/04 02:50:45;;;;;;;7.13;2.80;;;;;;;10.97;100.00;93639.47;5075101;28;20823;-78
2021/08/04 02:53:14;;;;;;;4.73;2.30;;;;;;;10.93;100.00;93641.72;5075858;28;20665;-77
2021/08/04 02:55:41;;;;;;;7.03;2.40;;;;;;;10.91;100.00;93635.09;5075402;28;20715;-76
2021/08/04 02:58:07;;;;;;;3.30;2.10;;;;;;;10.93;100.00;93640.91;5075698;28;20199;-80
2021/08/04 03:00:34;;;;;;;4.30;2.13;;;;;;;10.91;100.00;93637.72;5075909;28;20787;-79
2021/08/04 03:03:00;;;;;;;6.33;2.80;;;;;;;10.88;100.00;93633.69;5075613;28;20199;-81
2021/08/04 03:05:27;;;;;;;7.00;2.20;;;;;;;10.85;100.00;93635.91;5078789;28;20206;-80
2021/08/04 03:07:54;;;;;;;10.97;2.40;;;;;;;10.84;100.00;93635.13;5077066;28;20652;-81
2021/08/04 03:10:21;;;;;;;8.40;2.27;;;;;;;10.81;100.00;93637.31;5076433;28;20194;-79
2021/08/04 03:12:47;;;;;;;3.50;2.40;;;;;;;10.80;100.00;93636.53;5075698;28;20199;-82
2021/08/04 03:15:13;;;;;;;3.60;2.27;;;;;;;10.79;100.00;93647.16;5075419;28;20688;-81
2021/08/04 03:17:40;;;;;;;7.33;2.77;;;;;;;10.79;100.00;93640.16;5074890;28;20210;-81
2021/08/04 03:20:07;;;;;;;3.83;2.20;;;;;;;10.80;100.00;93633.13;5075290;28;20661;-79
2021/08/04 03:22:34;;;;;;;3.67;2.40;;;;;;;10.77;100.00;93634.31;5075391;28;20222;-80
2021/08/04 03:25:02;;;;;;;4.47;2.17;;;;;;;10.75;100.00;93644.16;5075229;28;20316;-79
2021/08/04 03:27:29;;;;;;;5.43;2.23;;;;;;;10.74;100.00;93643.38;5075604;28;20206;-81
2021/08/04 03:29:55;;;;;;;5.23;2.30;;;;;;;10.70;100.00;93639.56;5075254;28;20202;-81
2021/08/04 03:32:23;;;;;;;4.30;2.20;;;;;;;10.68;100.00;93638.16;5075114;28;20203;-80
2021/08/04 03:34:49;;;;;;;3.73;2.13;;;;;;;10.63;100.00;93633.56;5075193;28;20203;-80
2021/08/04 03:37:15;;;;;;;4.67;2.37;;;;;;;10.67;100.00;93636.56;5074840;28;20317;-81
2021/08/04 03:39:42;;;;;;;4.03;2.30;;;;;;;10.67;100.00;93642.56;5075236;28;20211;-81
2021/08/04 03:42:10;;;;;;;3.83;2.47;;;;;;;10.68;100.00;93635.56;5075119;28;20677;-80
2021/08/04 03:44:36;;;;;;;5.87;2.53;;;;;;;10.68;100.00;93638.16;5074799;28;20719;-81
2021/08/04 03:47:03;;;;;;;5.87;2.77;;;;;;;10.69;100.00;93632.75;5075357;28;20206;-81
2021/08/04 03:49:29;;;;;;;6.03;2.37;;;;;;;10.68;100.00;93630.34;5074988;28;20201;-80
2021/08/04 03:51:55;;;;;;;11.70;3.23;;;;;;;10.68;100.00;93632.94;5075551;28;20195;-80
2021/08/04 03:54:22;;;;;;;4.77;2.57;;;;;;;10.68;100.00;93633.75;5074894;28;20198;-81
2021/08/04 03:56:48;;;;;;;5.20;2.40;;;;;;;10.72;100.00;93631.50;5074504;28;20230;-81
2021/08/04 03:59:16;;;;;;;5.50;2.40;;;;;;;10.72;100.00;93624.50;5074888;28;20198;-80
2021/08/04 04:01:42;;;;;;;4.73;2.50;;;;;;;10.72;100.00;93624.50;5074567;28;20194;-81
2021/08/04 04:04:09;;;;;;;4.20;2.47;;;;;;;10.74;100.00;93625.09;5074161;28;20202;-81
2021/08/04 04:06:35;;;;;;;8.73;2.60;;;;;;;10.73;100.00;93627.91;5074578;28;20202;-82
2021/08/04 04:09:02;;;;;;;4.53;2.63;;;;;;;10.73;100.00;93635.75;5074328;28;20546;-82
2021/08/04 04:11:28;;;;;;;3.97;2.40;;;;;;;10.76;100.00;93637.13;5074585;28;20199;-82
2021/08/04 04:13:54;;;;;;;3.20;2.07;;;;;;;10.76;100.00;93634.50;5074586;28;20207;-81
2021/08/04 04:16:22;;;;;;;0.20;0.20;;;;;;;10.74;100.00;93617.25;5074338;28;20689;-82
2021/08/04 04:18:49;;;;;;;4.50;2.30;;;;;;;10.74;100.00;93621.66;5073980;28;20232;-82
2021/08/04 04:21:16;;;;;;;5.00;2.80;;;;;;;10.77;100.00;93625.69;5074282;28;20206;-82
2021/08/04 04:23:42;;;;;;;120.17;48.17;;;;;;;10.80;100.00;93630.50;5074326;28;20202;-81
2021/08/04 04:26:09;;;;;;;64.40;14.33;;;;;;;10.82;100.00;93628.47;5074250;28;20195;-81
2021/08/04 04:28:35;;;;;;;27.40;14.53;;;;;;;10.83;100.00;93630.09;5074096;28;20202;-80
2021/08/04 04:31:01;;;;;;;41.67;37.93;;;;;;;10.89;100.00;93634.47;5074028;28;20206;-80
2021/08/04 04:33:29;;;;;;;158.70;95.23;;;;;;;10.93;100.00;93633.88;5073970;28;20203;-79
2021/08/04 04:35:58;;;;;;;3.73;2.97;;;;;;;11.01;100.00;93632.06;5073807;28;20619;-82
2021/08/04 04:38:24;;;;;;;21.03;10.20;;;;;;;11.03;100.00;93635.25;5073986;28;20230;-79
2021/08/04 04:40:51;;;;;;;6.40;3.70;;;;;;;11.07;100.00;93632.03;5073968;28;20205;-82
2021/08/04 04:43:17;;;;;;;4.47;2.60;;;;;;;11.09;100.00;93630.00;5073752;28;20237;-81
2021/08/04 04:45:44;;;;;;;10.60;2.63;;;;;;;11.10;100.00;93631.59;5073808;28;20209;-81
2021/08/04 04:48:10;;;;;;;3.60;2.27;;;;;;;11.14;100.00;93628.56;5073639;28;20203;-80
2021/08/04 04:50:38;;;;;;;117.07;18.83;;;;;;;11.18;100.00;93632.38;5073805;28;20203;-80
2021/08/04 04:53:04;;;;;;;4.00;2.13;;;;;;;11.21;100.00;93631.97;5073921;28;20218;-81
2021/08/04 04:55:31;;;;;;;5.07;2.40;;;;;;;11.22;100.00;93630.94;5073699;28;20566;-81
2021/08/04 04:57:58;;;;;;;5.07;2.07;;;;;;;11.28;100.00;93636.16;5073318;28;20231;-80
2021/08/04 05:00:24;;;;;;;3.67;2.13;;;;;;;11.37;100.00;93631.47;5073414;28;20208;-80
2021/08/04 05:02:51;;;;;;;4.90;2.40;;;;;;;11.40;100.00;93638.91;5073585;28;20212;-81
2021/08/04 05:05:17;;;;;;;5.27;2.17;;;;;;;11.46;100.00;93643.31;5073308;28;20556;-81
2021/08/04 05:07:45;;;;;;;3.93;2.20;;;;;;;11.51;100.00;93637.47;5073586;28;20206;-81
2021/08/04 05:10:12;;;;;;;3.83;2.05;;;;;;;11.55;100.00;93643.06;5072707;28;20437;-79
2021/08/04 05:12:38;;;;;;;2.83;1.97;;;;;;;11.58;100.00;93643.44;5073250;28;20194;-81
2021/08/04 05:15:06;;;;;;;4.03;1.87;;;;;;;11.67;100.00;93644.00;5073421;28;20210;-80
2021/08/04 05:17:32;;;;;;;5.50;2.10;;;;;;;11.74;100.00;93643.94;5073078;28;20233;-81
2021/08/04 05:20:00;;;;;;;3.60;2.30;;;;;;;11.81;100.00;93642.91;5073388;28;20210;-81
2021/08/04 05:22:26;;;;;;;4.63;2.03;;;;;;;11.91;100.00;93641.66;5073220;28;20202;-81
2021/08/04 05:24:54;;;;;;;4.23;2.03;;;;;;;12.07;100.00;93643.75;5072965;28;20210;-80
2021/08/04 05:27:20;;;;;;;3.63;1.90;;;;;;;12.18;100.00;93642.28;5072969;28;20645;-80
2021/08/04 05:29:47;;;;;;;2.88;1.75;;;;;;;12.28;100.00;93641.81;5073074;28;20202;-80
2021/08/04 05:32:13;;;;;;;8.52;2.15;;;;;;;12.36;100.00;93638.91;5073103;28;20202;-80
2021/08/04 05:34:39;;;;;;;8.38;1.80;;;;;;;12.38;100.00;93636.88;5073044;28;20688;-80
2021/08/04 05:37:06;;;;;;;2.53;1.90;;;;;;;12.42;100.00;93639.88;5072874;28;20724;-80
2021/08/04 05:39:33;;;;;;;2.85;1.50;;;;;;;12.39;100.00;93634.06;5072954;28;20199;-80
2021/08/04 05:42:00;;;;;;;3.95;1.90;;;;;;;12.38;100.00;93637.69;5072392;28;20274;-81
2021/08/04 05:44:27;;;;;;;2.35;1.67;;;;;;;12.33;100.00;93629.66;5072896;28;20237;-81
2021/08/04 05:46:53;;;;;;;7.17;2.30;;;;;;;12.25;100.00;93629.94;5073043;28;20202;-80
2021/08/04 05:49:20;;;;;;;2.75;1.75;;;;;;;12.34;100.00;93638.31;5072871;28;20576;-81
2021/08/04 05:51:46;;;;;;;3.28;1.50;;;;;;;12.55;100.00;93621.41;5072880;28;20198;-81
2021/08/04 05:54:12;;;;;;;3.17;1.88;;;;;;;12.62;100.00;93632.63;5072934;28;20206;-81
2021/08/04 05:56:39;;;;;;;6.22;1.95;;;;;;;12.68;100.00;93636.22;5072797;28;20234;-81
2021/08/04 05:59:07;;;;;;;4.43;1.85;;;;;;;12.67;100.00;93635.38;5072744;28;20202;-82
2021/08/04 06:01:33;;;;;;;3.20;1.55;;;;;;;13.00;100.00;93638.69;5072842;28;20202;-81
2021/08/04 06:03:59;;;;;;;3.58;1.90;;;;;;;13.19;100.00;93642.94;5072705;28;20205;-81
2021/08/04 06:06:28;;;;;;;75.40;5.72;;;;;;;13.20;100.00;93649.75;5072710;28;20199;-82
2021/08/04 06:08:54;;;;;;;0.77;0.63;;;;;;;13.22;100.00;93647.75;5072648;28;20293;-81
2021/08/04 06:11:21;;;;;;;2.97;1.70;;;;;;;13.30;100.00;93657.09;5072504;28;20211;-81
2021/08/04 06:13:47;;;;;;;114.80;5.55;;;;;;;13.50;100.00;93660.31;5072580;28;20199;-82
2021/08/04 06:16:15;;;;;;;3.28;1.63;;;;;;;13.77;100.00;93664.41;5072631;28;20199;-81
2021/08/04 06:18:41;;;;;;;4.93;1.80;;;;;;;13.80;100.00;93658.72;5072535;28;20600;-81
2021/08/04 06:21:08;;;;;;;94.07;19.42;;;;;;;13.78;100.00;93653.69;5072639;28;20199;-80
2021/08/04 06:23:35;;;;;;;6.15;4.30;;;;;;;13.98;100.00;93650.78;5072612;28;20227;-81
2021/08/04 06:26:02;;;;;;;2.45;1.50;;;;;;;14.01;100.00;93650.34;5072377;28;20203;-81
2021/08/04 06:28:28;;;;;;;2.17;1.38;;;;;;;14.42;100.00;93650.53;5072724;28;20231;-81
2021/08/04 06:30:55;;;;;;;2.67;1.55;;;;;;;14.69;100.00;93647.47;5072607;28;20209;-81
2021/08/04 06:33:23;;;;;;;6.88;3.67;;;;;;;14.36;100.00;93647.00;5071139;28;20916;-81
2021/08/04 06:35:49;;;;;;;54.00;2.42;;;;;;;14.53;100.00;93656.81;5072229;28;20206;-81
2021/08/04 06:38:16;;;;;;;2.53;1.42;;;;;;;14.58;100.00;93649.84;5072341;28;20222;-81
2021/08/04 06:40:42;;;;;;;2.78;1.50;;;;;;;14.49;100.00;93656.47;5072254;28;20207;-82
2021/08/04 06:43:08;;;;;;;2.03;1.50;;;;;;;14.60;100.00;93658.34;5072318;28;20597;-81
2021/08/04 06:45:35;;;;;;;2.15;1.65;;;;;;;14.79;100.00;93666.13;5072451;28;20203;-81
2021/08/04 06:48:01;;;;;;;2.33;1.20;;;;;;;14.78;100.00;93657.41;5072371;28;20222;-83
2021/08/04 06:50:29;;;;;;;2.03;1.50;;;;;;;14.62;100.00;93660.72;5072049;28;20203;-82
2021/08/04 06:52:56;;;;;;;1.67;1.35;;;;;;;14.83;100.00;93661.22;5072265;28;20558;-80
2021/08/04 06:55:22;;;;;;;1.92;1.38;;;;;;;15.14;100.00;93658.19;5076288;28;20210;-82
2021/08/04 06:57:49;;;;;;;62.65;5.78;;;;;;;15.44;100.00;93659.84;5075849;28;20226;-83
2021/08/04 07:00:15;;;;;;;2.72;1.55;;;;;;;15.45;100.00;93663.28;5075731;28;20203;-82
2021/08/04 07:02:42;;;;;;;2.42;1.42;;;;;;;15.58;100.00;93659.59;5075858;28;20198;-83
2021/08/04 07:05:09;;;;;;;1.90;1.30;;;;;;;15.54;100.00;93660.03;5077079;28;20202;-82
2021/08/04 07:07:36;;;;;;;1.75;1.30;;;;;;;15.48;100.00;93663.59;5077764;28;20206;-82
2021/08/04 07:10:03;;;;;;;3.25;1.77;;;;;;;15.74;100.00;93650.94;5075713;28;20198;-81
2021/08/04 07:12:30;;;;;;;1.65;1.30;;;;;;;16.02;100.00;93654.59;5075729;28;20221;-82
2021/08/04 07:14:56;;;;;;;3.97;3.35;;;;;;;16.23;100.00;93648.66;5075854;28;20194;-81
2021/08/04 07:17:23;;;;;;;3.40;1.33;;;;;;;16.28;100.00;93645.31;5075649;28;20226;-82
2021/08/04 07:19:49;;;;;;;2.65;1.40;;;;;;;16.82;100.00;93655.38;5075752;28;20199;-84
2021/08/04 07:22:15;;;;;;;1.52;1.17;;;;;;;16.75;99.00;93657.34;5075323;28;20211;-83
2021/08/04 07:24:43;;;;;;;1.70;1.50;;;;;;;16.55;100.00;93661.28;5075368;28;20654;-84
2021/08/04 07:27:10;;;;;;;2.92;1.52;;;;;;;16.57;100.00;93653.94;5075818;28;20202;-83
2021/08/04 07:29:36;;;;;;;2.03;1.58;;;;;;;16.78;100.00;93654.25;5075580;28;20199;-82
2021/08/04 07:32:03;;;;;;;1.95;1.40;;;;;;;16.99;100.00;93653.50;5075472;28;20443;-81
2021/08/04 07:34:30;;;;;;;1.65;1.13;;;;;;;16.75;100.00;93649.44;5075354;28;20575;-83
2021/08/04 07:36:56;;;;;;;1.67;1.40;;;;;;;17.06;99.68;93649.91;5075180;28;20230;-83
2021/08/04 07:39:23;;;;;;;3.92;1.65;;;;;;;17.12;99.50;93648.91;5076659;28;20203;-83
2021/08/04 07:41:51;;;;;;;2.22;1.40;;;;;;;17.14;98.09;93646.84;5075667;28;20569;-83
2021/08/04 07:44:17;;;;;;;1.58;1.10;;;;;;;17.24;98.69;93656.75;5075109;28;20597;-83
2021/08/04 07:46:43;;;;;;;2.35;1.20;;;;;;;17.27;99.40;93646.50;5075034;28;20653;-83
2021/08/04 07:49:10;;;;;;;2.55;1.60;;;;;;;17.83;95.42;93648.97;5074778;28;20199;-83
2021/08/04 07:51:36;;;;;;;2.55;1.10;;;;;;;18.12;93.59;93646.91;5074744;28;20668;-83
2021/08/04 07:54:03;;;;;;;2.03;1.30;;;;;;;18.03;92.90;93652.91;5074849;28;20195;-84
2021/08/04 07:56:29;;;;;;;1.88;1.40;;;;;;;17.86;92.73;93642.41;5074669;28;20206;-84
2021/08/04 07:59:02;;;;;;;2.03;1.20;;;;;;;17.83;93.08;93643.69;5074754;28;20237;-83
2021/08/04 08:01:28;;;;;;;2.70;1.48;;;;;;;17.46;100.00;93646.19;5074607;28;20203;-84
2021/08/04 08:03:55;;;;;;;2.65;1.42;;;;;;;17.76;95.88;93643.88;5074041;28;20210;-83
2021/08/04 08:06:21;;;;;;;2.47;1.40;;;;;;;17.45;99.21;93655.16;5074694;28;20210;-82
2021/08/04 08:08:48;;;;;;;1.73;1.27;;;;;;;17.85;92.75;93651.34;5074699;28;20206;-83
2021/08/04 08:11:14;;;;;;;4.32;1.17;;;;;;;17.86;89.63;93653.75;5074555;28;20202;-83
2021/08/04 08:13:41;;;;;;;2.70;1.40;;;;;;;17.83;96.89;93646.31;5074414;28;20205;-84
2021/08/04 08:16:08;;;;;;;2.22;1.40;;;;;;;18.09;91.39;93651.91;5074498;28;20557;-83
2021/08/04 08:18:35;;;;;;;3.28;1.50;;;;;;;18.72;85.71;93654.81;5073457;28;20527;-83
2021/08/04 08:21:02;;;;;;;2.00;1.25;;;;;;;18.46;89.56;93656.44;5074027;28;20589;-82
2021/08/04 08:23:28;;;;;;;1.63;1.15;;;;;;;18.11;87.19;93655.88;5074442;28;20662;-82
2021/08/04 08:25:54;;;;;;;1.10;0.90;;;;;;;17.93;90.64;93664.16;5074315;28;20206;-82
2021/08/04 08:28:21;;;;;;;1.60;1.00;;;;;;;18.34;87.98;93669.84;5074310;28;20198;-84
2021/08/04 08:30:47;;;;;;;1.27;1.00;;;;;;;17.96;97.07;93654.94;5073662;28;20205;-84
2021/08/04 08:33:15;;;;;;;1.75;1.05;;;;;;;18.53;88.82;93646.44;5073961;28;20207;-83
2021/08/04 08:35:42;;;;;;;4.63;1.30;;;;;;;18.24;91.39;93640.69;5074774;28;20202;-83
2021/08/04 08:38:08;;;;;;;2.28;1.00;;;;;;;17.65;85.80;93649.28;5074019;28;20226;-82
2021/08/04 08:40:34;;;;;;;1.33;1.00;;;;;;;17.27;95.05;93646.50;5073829;28;20202;-83
2021/08/04 08:43:01;;;;;;;2.00;1.15;;;;;;;17.11;91.69;93644.69;5073618;28;20226;-82
2021/08/04 08:45:28;;;;;;;1.10;0.88;;;;;;;17.10;93.87;93646.56;5073725;28;20272;-81
2021/08/04 08:47:56;;;;;;;1.52;1.00;;;;;;;17.16;93.40;93639.50;5073818;28;20199;-84
2021/08/04 08:50:26;;;;;;;3.30;2.45;;;;;;;16.99;99.17;93640.31;5073868;28;20195;-84
2021/08/04 08:52:53;;;;;;;2.28;1.13;;;;;;;16.55;97.94;93645.47;5073778;28;20198;-83
2021/08/04 08:55:21;;;;;;;1.42;1.20;;;;;;;16.38;100.00;93645.47;5073648;28;20203;-83
2021/08/04 08:57:47;;;;;;;2.70;1.13;;;;;;;16.36;100.00;93646.75;5073675;28;20231;-82
2021/08/04 09:00:15;;;;;;;3.35;1.30;;;;;;;16.52;100.00;93639.88;5073480;28;20198;-83
2021/08/04 09:02:43;;;;;;;2.75;1.17;;;;;;;16.53;100.00;93646.75;5075249;28;20445;-82
2021/08/04 09:05:12;;;;;;;2.35;1.17;;;;;;;16.50;100.00;93648.00;5074169;28;20206;-83
2021/08/04 09:07:41;;;;;;;2.08;1.10;;;;;;;16.52;100.00;93645.16;5073409;28;20198;-83
2021/08/04 09:10:25;;;;;;;1.23;0.95;;;;;;;16.44;100.00;93641.09;5073732;28;20214;-83
2021/08/04 09:12:53;;;;;;;3.92;1.30;;;;;;;16.52;100.00;93643.31;5073149;28;20210;-83
2021/08/04 09:15:25;;;;;;;2.33;1.10;;;;;;;16.77;100.00;93640.25;5073405;28;20203;-84
2021/08/04 09:17:59;;;;;;;1.70;1.38;;;;;;;16.78;100.00;93627.88;5072647;28;20258;-84
2021/08/04 09:20:27;;;;;;;1.83;1.27;;;;;;;17.16;96.87;93629.72;5073306;28;20656;-84
2021/08/04 09:23:00;;;;;;;1.90;1.30;;;;;;;17.93;97.00;93625.31;5073292;28;20216;-83
2021/08/04 09:25:26;;;;;;;2.05;1.27;;;;;;;18.66;94.65;93630.16;5073888;28;20203;-84
2021/08/04 09:27:53;;;;;;;0.95;0.80;;;;;;;19.26;88.21;93622.06;5073328;28;20209;-83
2021/08/04 09:30:25;;;;;;;1.25;1.02;;;;;;;19.13;79.90;93628.59;5073315;28;20202;-84
2021/08/04 09:32:53;;;;;;;1.33;0.98;;;;;;;19.47;87.32;93622.94;5061722;28;20290;-84
2021/08/04 09:35:21;;;;;;;1.70;1.20;;;;;;;18.55;85.71;93619.75;5053438;28;20651;-82
2021/08/04 09:37:48;;;;;;;1.38;1.08;;;;;;;19.06;86.81;93621.97;5052649;28;20447;-82
2021/08/04 09:40:18;;;;;;;2.10;0.80;;;;;;;18.57;83.14;93618.47;5053178;28;20740;-84
2021/08/04 09:42:51;;;;;;;14.25;12.45;;;;;;;18.79;81.56;93628.91;5052869;28;20246;-84
2021/08/04 09:45:20;;;;;;;0.85;0.73;;;;;;;19.40;80.13;93614.44;5052869;28;20195;-83
2021/08/04 09:48:02;;;;;;;1.13;0.85;;;;;;;19.57;76.69;93607.09;5053155;28;20213;-83
2021/08/04 09:50:44;;;;;;;1.40;0.88;;;;;;;19.15;82.89;93615.13;5053136;28;20195;-82
2021/08/04 09:53:17;;;;;;;1.33;1.00;;;;;;;19.05;84.75;93610.56;5053079;28;20203;-84
2021/08/04 09:56:10;;;;;;;1.55;1.00;;;;;;;19.18;88.54;93607.44;5052970;28;20252;-84
2021/08/04 09:58:38;;;;;;;1.75;1.30;;;;;;;19.45;86.16;93603.06;5052814;28;20270;-85
2021/08/04 10:01:06;;;;;;;4.20;1.00;;;;;;;19.92;81.13;93608.25;5053362;28;20554;-83
2021/08/04 10:03:34;;;;;;;1.45;1.10;;;;;;;19.85;79.71;93602.44;5053017;28;20199;-84
2021/08/04 10:06:00;;;;;;;1.50;1.10;;;;;;;19.76;81.63;93593.38;5051851;28;20440;-81
2021/08/04 10:08:27;;;;;;;1.80;1.10;;;;;;;19.36;85.51;93602.78;5052780;28;20207;-83
2021/08/04 10:10:56;;;;;;;1.35;1.10;;;;;;;19.53;86.26;93591.97;5052685;28;20204;-82
2021/08/04 10:13:24;;;;;;;1.15;1.00;;;;;;;19.50;87.89;93585.34;5052659;28;20242;-82
2021/08/04 10:15:53;;;;;;;0.95;0.80;;;;;;;19.74;82.48;93583.03;5052574;28;20447;-81
2021/08/04 10:18:22;;;;;;;1.85;1.20;;;;;;;19.12;85.77;93581.22;5052603;28;20850;-83
2021/08/04 10:20:51;;;;;;;2.30;1.10;;;;;;;19.26;81.25;93578.91;5052605;28;20199;-84
2021/08/04 10:23:19;;;;;;;5.28;0.93;;;;;;;20.08;85.68;93573.81;5052710;28;20203;-84
2021/08/04 10:25:47;;;;;;;4.05;1.10;;;;;;;20.47;76.84;93573.28;5052307;28;20207;-83
2021/08/04 10:28:15;;;;;;;1.70;1.00;;;;;;;20.57;77.66;93572.47;5067176;28;20205;-83
2021/08/04 10:30:44;;;;;;;0.75;0.75;;;;;;;20.59;83.60;93573.00;5076403;28;20205;-83
2021/08/04 10:33:10;;;;;;;1.08;0.93;;;;;;;20.60;76.07;93572.75;5076198;28;20195;-82
2021/08/04 10:35:38;;;;;;;3.10;1.25;;;;;;;20.97;74.78;93568.19;5076374;28;20207;-78
2021/08/04 10:38:08;;;;;;;3.88;1.73;;;;;;;20.81;71.36;93565.56;5075894;28;20226;-81
2021/08/04 10:40:35;;;;;;;1.60;1.10;;;;;;;20.39;72.49;93568.53;5076096;28;20546;-81
2021/08/04 10:43:01;;;;;;;3.00;1.00;;;;;;;20.73;78.54;93570.63;5075910;28;20226;-81
2021/08/04 10:45:37;;;;;;;1.48;1.00;;;;;;;21.04;73.18;93569.47;5075974;28;20203;-80
2021/08/04 10:48:23;;;;;;;1.50;1.00;;;;;;;20.46;72.53;93567.16;5075935;28;20553;-80
2021/08/04 10:51:11;;;;;;;2.88;1.00;;;;;;;20.67;71.63;93570.63;5076110;28;20191;-80
2021/08/04 10:54:13;;;;;;;12.35;1.35;;;;;;;21.24;74.20;93565.16;5075893;28;20226;-80
2021/08/04 10:57:08;;;;;;;1.67;1.05;;;;;;;21.21;70.77;93568.34;5075828;28;20648;-80
2021/08/04 10:59:35;;;;;;;1.80;0.90;;;;;;;20.99;75.68;93561.53;5075835;28;20268;-80
2021/08/04 11:02:32;;;;;;;1.92;0.88;;;;;;;20.72;71.03;93566.38;5075761;28;20210;-80
2021/08/04 11:04:59;;;;;;;1.27;1.00;;;;;;;19.67;75.29;93556.00;5075674;28;20230;-81
2021/08/04 11:07:26;;;;;;;1.30;1.00;;;;;;;20.02;74.99;93558.97;5075532;28;20588;-80
2021/08/04 11:09:58;;;;;;;2.53;1.10;;;;;;;20.30;74.92;93555.81;5075650;28;20198;-79
2021/08/04 11:12:44;;;;;;;1.10;1.00;;;;;;;20.29;74.56;93551.53;5075682;28;20209;-81
2021/08/04 11:15:22;;;;;;;0.82;0.77;;;;;;;19.48;82.20;93550.38;5075774;28;20202;-80
2021/08/04 11:18:04;;;;;;;1.60;0.90;;;;;;;20.28;75.81;93547.31;5075318;28;20209;-80
2021/08/04 11:20:32;;;;;;;1.05;0.85;;;;;;;20.40;72.65;93554.19;5075773;28;20256;-81
2021/08/04 11:22:59;;;;;;;1.15;0.85;;;;;;;20.67;71.84;93546.75;5075643;28;20198;-80
2021/08/04 11:25:36;;;;;;;1.63;1.10;;;;;;;20.58;69.44;93560.81;5076165;28;20194;-81
2021/08/04 11:28:12;;;;;;;2.75;0.90;;;;;;;20.14;71.01;93562.16;5075560;28;20233;-81
2021/08/04 11:30:40;;;;;;;1.10;0.85;;;;;;;20.16;72.61;93549.44;5075483;28;20202;-80
2021/08/04 11:33:28;;;;;;;1.40;0.70;;;;;;;20.82;69.72;93553.09;5075372;28;20209;-81